Time,TemperatureF,DewpointF,PressureIn,WindDirection,WindDirectionDegrees,WindSpeedMPH,WindSpeedGustMPH,Humidity,HourlyPrecipIn,Conditions,Clouds,dailyrainin,SolarRadiationWatts/m^2,SoftwareType,DateUTC
2013-02-11 00:01:00,48.0,33.0,-100.00,NNE,27,0.0,5.0,55,0.00,,,0.01,300.000000,,2013-02-11 00:01:00,
2013-02-11 00:11:00,48.0,33.0,-100.00,NNE,27,0.0,5.0,55,0.00,,,0.01,300.000000,,2013-02-11 00:11:00,
2013-02-11 00:21:00,48.0,33.0,-100.00,NNE,27,0.0,5.0,55,0.00,,,0.01,300.000000,,2013-02-11 00:21:00,
2013-02-11 00:31:00,48.0,33.0,-100.00,NNE,27,0.0,5.0,55,0.00,,,0.01,300.000000,,2013-02-11 00:31:00,
2013-02-11 00:52:00,44.0,32.0,-100.00,WNW,292,0.0,5.0,62,0.00,,,0.01,103.000000,,2013-02-11 00:52:00,
2013-02-11 01:01:00,44.0,32.0,-100.00,WNW,292,0.0,5.0,62,0.00,,,0.01,103.000000,,2013-02-11 01:01:00,
2013-02-11 01:11:00,44.0,32.0,-100.00,WNW,292,0.0,5.0,62,0.00,,,0.01,103.000000,,2013-02-11 01:11:00,
2013-02-11 01:21:00,44.0,32.0,-100.00,WNW,292,0.0,5.0,62,0.00,,,0.01,103.000000,,2013-02-11 01:21:00,
2013-02-11 01:31:00,44.0,32.0,-100.00,WNW,292,0.0,5.0,62,0.00,,,0.01,103.000000,,2013-02-11 01:31:00,
2013-02-11 01:52:00,41.0,32.0,-100.00,WSW,245,0.0,2.0,69,0.00,,,0.01,17.000000,,2013-02-11 01:52:00,
2013-02-11 02:01:00,41.0,32.0,-100.00,WSW,245,0.0,2.0,69,0.00,,,0.01,17.000000,,2013-02-11 02:01:00,
2013-02-11 02:11:00,41.0,32.0,-100.00,WSW,245,0.0,2.0,69,0.00,,,0.01,17.000000,,2013-02-11 02:11:00,
2013-02-11 02:21:00,41.0,32.0,-100.00,WSW,245,0.0,2.0,69,0.00,,,0.01,17.000000,,2013-02-11 02:21:00,
2013-02-11 02:31:00,41.0,32.0,-100.00,WSW,245,0.0,2.0,69,0.00,,,0.01,17.000000,,2013-02-11 02:31:00,
2013-02-11 02:52:00,40.0,33.0,-100.00,WSW,248,0.0,3.0,76,0.00,,,0.01,0.000000,,2013-02-11 02:52:00,
2013-02-11 03:01:00,40.0,33.0,-100.00,WSW,248,0.0,3.0,76,0.00,,,0.01,0.000000,,2013-02-11 03:01:00,
2013-02-11 03:11:00,40.0,33.0,-100.00,WSW,248,0.0,3.0,76,0.00,,,0.01,0.000000,,2013-02-11 03:11:00,
2013-02-11 03:21:00,40.0,33.0,-100.00,WSW,248,0.0,3.0,76,0.00,,,0.01,0.000000,,2013-02-11 03:21:00,
2013-02-11 03:31:00,40.0,33.0,-100.00,WSW,248,0.0,3.0,76,0.00,,,0.01,0.000000,,2013-02-11 03:31:00,
2013-02-11 03:52:00,40.0,33.0,-100.00,West,261,0.0,4.0,77,0.00,,,0.00,0.000000,,2013-02-11 03:52:00,
2013-02-11 04:01:00,40.0,33.0,-100.00,West,261,0.0,4.0,77,0.00,,,0.00,0.000000,,2013-02-11 04:01:00,
2013-02-11 04:11:00,40.0,33.0,-100.00,West,261,0.0,4.0,77,0.00,,,0.00,0.000000,,2013-02-11 04:11:00,
2013-02-11 04:21:00,40.0,33.0,-100.00,West,261,0.0,4.0,77,0.00,,,0.00,0.000000,,2013-02-11 04:21:00,
2013-02-11 04:31:00,40.0,33.0,-100.00,West,261,0.0,4.0,77,0.00,,,0.00,0.000000,,2013-02-11 04:31:00,
2013-02-11 04:52:00,39.0,34.0,-100.00,WNW,298,0.0,2.0,83,0.00,,,0.00,0.000000,,2013-02-11 04:52:00,
2013-02-11 05:01:00,39.0,34.0,-100.00,WNW,298,0.0,2.0,83,0.00,,,0.00,0.000000,,2013-02-11 05:01:00,
2013-02-11 05:11:00,39.0,34.0,-100.00,WNW,298,0.0,2.0,83,0.00,,,0.00,0.000000,,2013-02-11 05:11:00,
2013-02-11 05:22:00,39.0,34.0,-100.00,WNW,298,0.0,2.0,83,0.00,,,0.00,0.000000,,2013-02-11 05:22:00,
2013-02-11 05:31:00,39.0,34.0,-100.00,WNW,298,0.0,2.0,83,0.00,,,0.00,0.000000,,2013-02-11 05:31:00,
2013-02-11 06:01:00,40.0,34.0,-100.00,South,191,0.0,0.0,78,0.00,,,0.00,0.000000,,2013-02-11 06:01:00,
2013-02-11 06:11:00,40.0,34.0,-100.00,South,191,0.0,0.0,78,0.00,,,0.00,0.000000,,2013-02-11 06:11:00,
2013-02-11 06:21:00,40.0,34.0,-100.00,South,191,0.0,0.0,78,0.00,,,0.00,0.000000,,2013-02-11 06:21:00,
2013-02-11 06:31:00,40.0,34.0,-100.00,South,191,0.0,0.0,78,0.00,,,0.00,0.000000,,2013-02-11 06:31:00,
2013-02-11 06:52:00,37.0,32.0,-100.00,WSW,240,0.0,4.0,81,0.00,,,0.00,0.000000,,2013-02-11 06:52:00,
2013-02-11 07:01:00,37.0,32.0,-100.00,WSW,240,0.0,4.0,81,0.00,,,0.00,0.000000,,2013-02-11 07:01:00,
2013-02-11 07:11:00,37.0,32.0,-100.00,WSW,240,0.0,4.0,81,0.00,,,0.00,0.000000,,2013-02-11 07:11:00,
2013-02-11 07:21:00,37.0,32.0,-100.00,WSW,240,0.0,4.0,81,0.00,,,0.00,0.000000,,2013-02-11 07:21:00,
2013-02-11 07:31:00,37.0,32.0,-100.00,WSW,240,0.0,4.0,81,0.00,,,0.00,0.000000,,2013-02-11 07:31:00,
2013-02-11 08:01:00,37.0,29.0,-100.00,WSW,246,2.0,8.0,74,0.00,,,0.00,0.000000,,2013-02-11 08:01:00,
2013-02-11 08:11:00,37.0,29.0,-100.00,WSW,246,2.0,8.0,74,0.00,,,0.00,0.000000,,2013-02-11 08:11:00,
2013-02-11 08:21:00,37.0,29.0,-100.00,WSW,246,2.0,8.0,74,0.00,,,0.00,0.000000,,2013-02-11 08:21:00,
2013-02-11 08:31:00,37.0,29.0,-100.00,WSW,246,2.0,8.0,74,0.00,,,0.00,0.000000,,2013-02-11 08:31:00,
2013-02-11 09:01:00,36.0,28.0,-100.00,SW,221,2.0,8.0,72,0.00,,,0.00,0.000000,,2013-02-11 09:01:00,
2013-02-11 09:12:00,36.0,28.0,-100.00,SW,221,2.0,8.0,72,0.00,,,0.00,0.000000,,2013-02-11 09:12:00,
2013-02-11 09:21:00,36.0,28.0,-100.00,SW,221,2.0,8.0,72,0.00,,,0.00,0.000000,,2013-02-11 09:21:00,
2013-02-11 09:31:00,36.0,28.0,-100.00,SW,221,2.0,8.0,72,0.00,,,0.00,0.000000,,2013-02-11 09:31:00,
2013-02-11 09:52:00,37.0,29.0,-100.00,South,183,0.0,8.0,74,0.00,,,0.00,0.000000,,2013-02-11 09:52:00,
2013-02-11 10:01:00,37.0,29.0,-100.00,South,183,0.0,8.0,74,0.00,,,0.00,0.000000,,2013-02-11 10:01:00,
2013-02-11 10:11:00,37.0,29.0,-100.00,South,183,0.0,8.0,74,0.00,,,0.00,0.000000,,2013-02-11 10:11:00,
2013-02-11 10:21:00,37.0,29.0,-100.00,South,183,0.0,8.0,74,0.00,,,0.00,0.000000,,2013-02-11 10:21:00,
2013-02-11 10:31:00,37.0,29.0,-100.00,South,183,0.0,8.0,74,0.00,,,0.00,0.000000,,2013-02-11 10:31:00,
2013-02-11 10:52:00,35.0,29.0,-100.00,East,96,1.0,11.0,80,0.00,,,0.00,0.000000,,2013-02-11 10:52:00,
2013-02-11 11:01:00,35.0,29.0,-100.00,East,96,1.0,11.0,80,0.00,,,0.00,0.000000,,2013-02-11 11:01:00,
2013-02-11 11:11:00,35.0,29.0,-100.00,East,96,1.0,11.0,80,0.00,,,0.00,0.000000,,2013-02-11 11:11:00,
2013-02-11 11:22:00,35.0,29.0,-100.00,East,96,1.0,11.0,80,0.00,,,0.00,0.000000,,2013-02-11 11:22:00,
2013-02-11 11:32:00,35.0,29.0,-100.00,East,96,1.0,11.0,80,0.00,,,0.00,0.000000,,2013-02-11 11:32:00,
2013-02-11 11:52:00,33.0,30.0,-100.00,WNW,290,0.0,5.0,89,0.00,,,0.00,0.000000,,2013-02-11 11:52:00,
2013-02-11 12:03:00,33.0,30.0,-100.00,WNW,290,0.0,5.0,89,0.00,,,0.00,0.000000,,2013-02-11 12:03:00,
2013-02-11 12:12:00,33.0,30.0,-100.00,WNW,290,0.0,5.0,89,0.00,,,0.00,0.000000,,2013-02-11 12:12:00,
2013-02-11 12:22:00,33.0,30.0,-100.00,WNW,290,0.0,5.0,89,0.00,,,0.00,0.000000,,2013-02-11 12:22:00,
2013-02-11 12:31:00,33.0,30.0,-100.00,WNW,290,0.0,5.0,89,0.00,,,0.00,0.000000,,2013-02-11 12:31:00,
2013-02-11 12:52:00,32.0,29.0,-100.00,North,8,0.0,5.0,88,0.00,,,-99.99,0.000000,,2013-02-11 12:52:00,
2013-02-11 13:01:00,32.0,29.0,-100.00,North,8,0.0,5.0,88,0.00,,,-99.99,0.000000,,2013-02-11 13:01:00,
2013-02-11 13:11:00,32.0,29.0,-100.00,North,8,0.0,5.0,88,0.00,,,-99.99,0.000000,,2013-02-11 13:11:00,
2013-02-11 13:21:00,32.0,29.0,-100.00,North,8,0.0,5.0,88,0.00,,,-99.99,0.000000,,2013-02-11 13:21:00,
2013-02-11 13:32:00,32.0,29.0,-100.00,North,8,0.0,5.0,88,0.00,,,-99.99,0.000000,,2013-02-11 13:32:00,
2013-02-11 13:52:00,38.0,21.0,-100.00,SW,232,2.0,12.0,49,0.00,,,-99.99,0.000000,,2013-02-11 13:52:00,
2013-02-11 14:01:00,38.0,21.0,-100.00,SW,232,2.0,12.0,49,0.00,,,-99.99,0.000000,,2013-02-11 14:01:00,
2013-02-11 14:11:00,38.0,21.0,-100.00,SW,232,2.0,12.0,49,0.00,,,-99.99,0.000000,,2013-02-11 14:11:00,
2013-02-11 14:21:00,38.0,21.0,-100.00,SW,232,2.0,12.0,49,0.00,,,-99.99,0.000000,,2013-02-11 14:21:00,
2013-02-11 14:32:00,38.0,21.0,-100.00,SW,232,2.0,12.0,49,0.00,,,-99.99,0.000000,,2013-02-11 14:32:00,
2013-02-11 14:53:00,34.0,21.0,-100.00,SW,230,2.0,12.0,58,0.00,,,0.00,0.000000,,2013-02-11 14:53:00,
2013-02-11 15:01:00,34.0,21.0,-100.00,SW,230,2.0,12.0,58,0.00,,,0.00,0.000000,,2013-02-11 15:01:00,
2013-02-11 15:11:00,34.0,21.0,-100.00,SW,230,2.0,12.0,58,0.00,,,0.00,0.000000,,2013-02-11 15:11:00,
2013-02-11 15:22:00,34.0,21.0,-100.00,SW,230,2.0,12.0,58,0.00,,,0.00,0.000000,,2013-02-11 15:22:00,
2013-02-11 15:31:00,34.0,21.0,-100.00,SW,230,2.0,12.0,58,0.00,,,0.00,0.000000,,2013-02-11 15:31:00,
2013-02-11 15:52:00,38.0,19.0,-100.00,SW,221,4.0,16.0,46,0.00,,,0.00,28.000000,,2013-02-11 15:52:00,
2013-02-11 16:01:00,38.0,19.0,-100.00,SW,221,4.0,16.0,46,0.00,,,0.00,28.000000,,2013-02-11 16:01:00,
2013-02-11 16:11:00,38.0,19.0,-100.00,SW,221,4.0,16.0,46,0.00,,,0.00,28.000000,,2013-02-11 16:11:00,
2013-02-11 16:52:00,47.0,18.0,-100.00,ESE,118,7.0,13.0,31,0.00,,,-99.99,316.000000,,2013-02-11 16:52:00,
2013-02-11 17:01:00,47.0,18.0,-100.00,ESE,118,7.0,13.0,31,0.00,,,-99.99,316.000000,,2013-02-11 17:01:00,
2013-02-11 18:01:00,47.0,21.0,-100.00,ESE,108,8.0,16.0,35,0.00,,,0.00,562.000000,,2013-02-11 18:01:00,
2013-02-11 18:11:00,47.0,21.0,-100.00,ESE,108,8.0,16.0,35,0.00,,,0.00,562.000000,,2013-02-11 18:11:00,
2013-02-11 18:21:00,47.0,21.0,-100.00,ESE,108,8.0,16.0,35,0.00,,,0.00,562.000000,,2013-02-11 18:21:00,
2013-02-11 18:31:00,47.0,21.0,-100.00,ESE,108,8.0,16.0,35,0.00,,,0.00,562.000000,,2013-02-11 18:31:00,
2013-02-11 18:53:00,52.0,16.0,-100.00,SE,133,9.0,19.0,24,0.00,,,0.00,753.000000,,2013-02-11 18:53:00,
2013-02-11 19:01:00,52.0,16.0,-100.00,SE,133,9.0,19.0,24,0.00,,,0.00,753.000000,,2013-02-11 19:01:00,
2013-02-11 19:11:00,52.0,16.0,-100.00,SE,133,9.0,19.0,24,0.00,,,0.00,753.000000,,2013-02-11 19:11:00,
2013-02-11 19:21:00,52.0,16.0,-100.00,SE,133,9.0,19.0,24,0.00,,,0.00,753.000000,,2013-02-11 19:21:00,
2013-02-11 19:31:00,52.0,16.0,-100.00,SE,133,9.0,19.0,24,0.00,,,0.00,753.000000,,2013-02-11 19:31:00,
2013-02-11 20:01:00,56.0,12.0,-100.00,SE,129,2.0,16.0,17,0.00,,,0.00,883.000000,,2013-02-11 20:01:00,
2013-02-11 21:02:00,53.0,9.0,-100.00,SSE,156,11.0,22.0,17,-99.99,,,0.00,925.000000,,2013-02-11 21:02:00,
2013-02-11 21:11:00,53.0,9.0,-100.00,SSE,156,11.0,22.0,17,-99.99,,,0.00,925.000000,,2013-02-11 21:11:00,
2013-02-11 21:21:00,53.0,9.0,-100.00,SSE,156,11.0,22.0,17,-99.99,,,0.00,925.000000,,2013-02-11 21:21:00,
2013-02-11 21:31:00,53.0,9.0,-100.00,SSE,156,11.0,22.0,17,-99.99,,,0.00,925.000000,,2013-02-11 21:31:00,
2013-02-11 21:52:00,52.0,11.0,-100.00,SW,225,9.0,22.0,19,0.00,,,0.00,885.000000,,2013-02-11 21:52:00,
2013-02-11 22:01:00,52.0,11.0,-100.00,SW,225,9.0,22.0,19,0.00,,,0.00,885.000000,,2013-02-11 22:01:00,
2013-02-11 22:11:00,52.0,11.0,-100.00,SW,225,9.0,22.0,19,0.00,,,0.00,885.000000,,2013-02-11 22:11:00,
2013-02-11 22:21:00,52.0,11.0,-100.00,SW,225,9.0,22.0,19,0.00,,,0.00,885.000000,,2013-02-11 22:21:00,
2013-02-11 22:31:00,52.0,11.0,-100.00,SW,225,9.0,22.0,19,0.00,,,0.00,885.000000,,2013-02-11 22:31:00,
2013-02-11 22:52:00,53.0,8.0,-100.00,SW,215,7.0,25.0,16,0.00,,,0.00,772.000000,,2013-02-11 22:52:00,
2013-02-11 23:01:00,53.0,8.0,-100.00,SW,215,7.0,25.0,16,0.00,,,0.00,772.000000,,2013-02-11 23:01:00,
2013-02-11 23:11:00,53.0,8.0,-100.00,SW,215,7.0,25.0,16,0.00,,,0.00,772.000000,,2013-02-11 23:11:00,
2013-02-11 23:21:00,53.0,8.0,-100.00,SW,215,7.0,25.0,16,0.00,,,0.00,772.000000,,2013-02-11 23:21:00,
2013-02-11 23:31:00,53.0,8.0,-100.00,SW,215,7.0,25.0,16,0.00,,,0.00,772.000000,,2013-02-11 23:31:00,
2013-02-11 23:52:00,52.0,9.0,-100.00,North,4,6.0,26.0,17,0.00,,,0.00,566.000000,,2013-02-11 23:52:00,